This is the latest recevied weather packets stored in our database for station/object PP5FMM-10. If no packets are shown the sender has not sent any weather packets the latest 10 day(s).
| Time | Temp. | Humidity | Pressure | Rain* | Wind** | Luminosity | Snow |
|---|---|---|---|---|---|---|---|
| 1777815499 | 22.78° C | 57% | 1024.5 hPa | - | - | - | - |
| 1777815494 | 22.78° C | 57% | 1024.5 hPa | - | - | - | - |
| 1777814598 | 22.78° C | 55% | 1024.5 hPa | - | - | - | - |
| 1777814594 | 22.78° C | 55% | 1024.5 hPa | - | - | - | - |
| 1777813698 | 22.22° C | 53% | 1024.6 hPa | - | - | - | - |
| 1777813694 | 22.22° C | 53% | 1024.6 hPa | - | - | - | - |
| 1777812798 | 21.67° C | 52% | 1024.6 hPa | - | - | - | - |
| 1777812794 | 21.67° C | 52% | 1024.6 hPa | - | - | - | - |
| 1777811898 | 21.11° C | 51% | 1024.4 hPa | - | - | - | - |
| 1777811894 | 21.11° C | 51% | 1024.4 hPa | - | - | - | - |
| 1777810998 | 21.67° C | 54% | 1024.3 hPa | - | - | - | - |
| 1777810994 | 21.67° C | 54% | 1024.3 hPa | - | - | - | - |
| 1777810098 | 21.67° C | 54% | 1024.3 hPa | - | - | - | - |
| 1777810093 | 21.67° C | 54% | 1024.3 hPa | - | - | - | - |
| 1777809197 | 22.22° C | 59% | 1024.2 hPa | - | - | - | - |
| 1777809193 | 22.22° C | 59% | 1024.2 hPa | - | - | - | - |
| 1777808297 | 22.22° C | 64% | 1023.9 hPa | - | - | - | - |
| 1777808293 | 22.22° C | 64% | 1023.9 hPa | - | - | - | - |
| 1777807397 | 22.22° C | 67% | 1023.6 hPa | - | - | - | - |
| 1777807393 | 22.22° C | 67% | 1023.6 hPa | - | - | - | - |
| 1777806497 | 21.67° C | 64% | 1023.5 hPa | - | - | - | - |
| 1777806493 | 21.67° C | 64% | 1023.5 hPa | - | - | - | - |
| 1777805597 | 21.67° C | 65% | 1023.3 hPa | - | - | - | - |
| 1777805593 | 21.67° C | 65% | 1023.3 hPa | - | - | - | - |
| 1777804697 | 22.22° C | 66% | 1023.1 hPa | - | - | - | - |
* Rain since midnight (hover to see other rain measurements)
** Current wind speed in m/s (hover to see current wind gust speed)